Time;durP1;ratioP1;P1;durP2;ratioP2;P2;SDS_P1;SDS_P2;PMS_P1;PMS_P2;Temp;Humidity;BMP_temperature;BMP_pressure;BME280_temperature;BME280_humidity;BME280_pressure;Samples;Min_cycle;Max_cycle;Signal;HPM_P1;HPM_P2
2023/07/22 00:02:13;;;;;;;4.85;4.03;;;24.90;1.00;;;;;;5035103;28;20367;-61
2023/07/22 00:04:39;;;;;;;7.03;4.53;;;25.00;1.00;;;;;;5033562;28;20472;-62
2023/07/22 00:07:05;;;;;;;6.55;4.90;;;25.00;1.00;;;;;;5035071;28;20044;-62
2023/07/22 00:09:36;;;;;;;6.03;4.15;;;24.80;1.00;;;;;;5034841;28;20035;-62
2023/07/22 00:12:02;;;;;;;6.35;4.90;;;24.80;1.00;;;;;;5034964;28;20029;-61
2023/07/22 00:14:28;;;;;;;6.20;4.60;;;24.80;1.00;;;;;;5033739;28;20033;-62
2023/07/22 00:16:53;;;;;;;4.57;4.18;;;24.70;1.00;;;;;;5034617;28;20380;-61
2023/07/22 00:19:19;;;;;;;5.50;4.18;;;24.80;1.00;;;;;;5035013;28;20113;-62
2023/07/22 00:21:45;;;;;;;5.60;4.80;;;24.70;1.00;;;;;;5034433;28;20026;-62
2023/07/22 00:24:10;;;;;;;5.97;4.85;;;24.70;1.00;;;;;;5034457;28;20025;-61
2023/07/22 00:26:36;;;;;;;5.88;4.53;;;24.70;1.00;;;;;;5027487;28;20056;-62
2023/07/22 00:29:02;;;;;;;5.80;4.30;;;24.70;1.00;;;;;;5034130;28;20108;-62
2023/07/22 00:31:28;;;;;;;4.63;3.72;;;24.60;1.00;;;;;;5034400;28;20021;-62
2023/07/22 00:33:54;;;;;;;5.72;3.85;;;24.60;1.00;;;;;;5022576;28;20034;-62
2023/07/22 00:36:20;;;;;;;4.40;4.00;;;24.70;1.00;;;;;;5023941;28;20025;-62
2023/07/22 00:38:45;;;;;;;5.50;3.75;;;24.60;1.00;;;;;;5020306;28;20033;-61
2023/07/22 00:41:11;;;;;;;6.15;3.72;;;24.60;1.00;;;;;;5025488;28;20018;-61
2023/07/22 00:43:38;;;;;;;4.05;3.65;;;24.60;1.00;;;;;;5029046;28;20521;-62
2023/07/22 00:46:04;;;;;;;4.88;4.40;;;24.50;1.00;;;;;;5027669;28;20075;-62
2023/07/22 00:48:31;;;;;;;4.10;3.70;;;24.50;1.00;;;;;;5027176;28;20034;-62
2023/07/22 00:50:57;;;;;;;6.13;4.07;;;24.60;1.00;;;;;;5033983;28;20018;-62
2023/07/22 00:53:23;;;;;;;4.07;3.40;;;24.60;1.00;;;;;;5034067;28;20529;-62
2023/07/22 00:55:49;;;;;;;4.80;4.18;;;24.60;1.00;;;;;;5033863;28;20025;-62
2023/07/22 00:58:15;;;;;;;5.65;4.05;;;24.70;1.00;;;;;;5033790;28;20033;-62
2023/07/22 01:00:41;;;;;;;4.85;3.97;;;24.70;1.00;;;;;;5033786;28;20029;-62
2023/07/22 01:03:07;;;;;;;5.07;3.83;;;24.70;1.00;;;;;;5027611;28;20383;-62
2023/07/22 01:05:34;;;;;;;5.22;3.63;;;24.60;1.00;;;;;;5026372;28;20095;-62
2023/07/22 01:08:01;;;;;;;4.28;3.85;;;24.50;1.00;;;;;;5033872;28;20029;-62
2023/07/22 01:10:27;;;;;;;4.78;3.80;;;24.60;1.00;;;;;;5033300;28;20026;-62
2023/07/22 01:12:52;;;;;;;6.43;3.78;;;24.60;1.00;;;;;;5033515;28;20463;-62
2023/07/22 01:15:18;;;;;;;4.10;3.70;;;24.60;1.00;;;;;;5033556;28;20029;-62
2023/07/22 01:17:45;;;;;;;5.13;3.50;;;24.60;1.00;;;;;;5033482;28;20087;-62
2023/07/22 01:20:12;;;;;;;4.10;3.70;;;24.60;1.00;;;;;;5032759;28;20021;-62
2023/07/22 01:22:39;;;;;;;4.50;3.30;;;24.60;1.00;;;;;;5032813;28;20033;-62
2023/07/22 01:25:05;;;;;;;4.72;3.55;;;24.70;1.00;;;;;;5032661;28;20029;-62
2023/07/22 01:27:30;;;;;;;4.93;3.40;;;24.70;1.00;;;;;;5028991;28;20029;-62
2023/07/22 01:29:56;;;;;;;5.72;3.60;;;24.70;1.00;;;;;;5031962;28;20009;-62
2023/07/22 01:32:22;;;;;;;6.47;3.55;;;24.80;1.00;;;;;;5031825;28;20083;-62
2023/07/22 01:34:48;;;;;;;3.30;3.00;;;24.70;1.00;;;;;;5031951;28;20033;-62
2023/07/22 01:37:13;;;;;;;4.50;2.90;;;24.60;1.00;;;;;;5032460;28;20061;-62
2023/07/22 01:39:39;;;;;;;3.42;2.60;;;24.70;1.00;;;;;;5032462;28;20038;-62
2023/07/22 01:42:05;;;;;;;2.97;2.75;;;24.70;1.00;;;;;;5032799;28;20052;-62
2023/07/22 01:44:31;;;;;;;4.07;3.25;;;24.70;1.00;;;;;;5032455;28;20057;-62
2023/07/22 01:46:57;;;;;;;4.28;3.05;;;24.80;1.00;;;;;;5032626;28;20044;-61
2023/07/22 01:49:24;;;;;;;4.18;3.38;;;24.80;1.00;;;;;;5032578;28;20028;-62
2023/07/22 01:51:50;;;;;;;4.65;3.22;;;24.80;1.00;;;;;;5033094;28;20029;-62
2023/07/22 01:54:15;;;;;;;3.17;2.88;;;24.80;1.00;;;;;;5032940;28;20081;-62
2023/07/22 01:56:41;;;;;;;4.45;2.78;;;24.70;1.00;;;;;;5032986;28;20032;-62
2023/07/22 01:59:07;;;;;;;3.20;2.90;;;24.70;1.00;;;;;;5032751;28;20039;-62
2023/07/22 02:01:32;;;;;;;4.50;3.15;;;24.60;1.00;;;;;;5033052;28;20052;-62
2023/07/22 02:03:58;;;;;;;3.65;3.17;;;24.60;1.00;;;;;;5032798;28;20034;-62
2023/07/22 02:06:24;;;;;;;4.32;3.33;;;24.80;1.00;;;;;;5032955;28;20034;-62
2023/07/22 02:08:50;;;;;;;5.40;3.50;;;24.80;1.00;;;;;;5032758;28;20078;-62
2023/07/22 02:11:17;;;;;;;3.67;3.20;;;24.80;1.00;;;;;;5032878;28;20017;-62
2023/07/22 02:13:43;;;;;;;3.70;3.40;;;24.70;1.00;;;;;;5032801;28;20052;-62
2023/07/22 02:16:11;;;;;;;3.58;3.20;;;24.80;1.00;;;;;;5032716;28;20073;-62
2023/07/22 02:18:37;;;;;;;3.10;2.78;;;24.70;1.00;;;;;;5032898;28;20072;-62
2023/07/22 02:21:03;;;;;;;3.63;3.08;;;24.90;1.00;;;;;;5032694;28;20491;-62
2023/07/22 02:23:28;;;;;;;3.38;3.08;;;24.80;1.00;;;;;;5032853;28;20053;-61
2023/07/22 02:25:54;;;;;;;4.25;3.28;;;24.80;1.00;;;;;;5032817;28;20081;-62
2023/07/22 02:28:21;;;;;;;4.13;3.67;;;24.80;1.00;;;;;;5032676;28;20045;-61
2023/07/22 02:30:52;;;;;;;6.25;3.63;;;24.90;1.00;;;;;;5032712;28;20028;-61
2023/07/22 02:33:19;;;;;;;3.83;2.80;;;24.80;1.00;;;;;;5032555;28;20040;-62
2023/07/22 02:35:45;;;;;;;3.97;3.55;;;24.80;1.00;;;;;;5032680;28;20076;-62
2023/07/22 02:38:11;;;;;;;4.22;3.28;;;24.80;1.00;;;;;;5034276;28;20061;-61
2023/07/22 02:40:37;;;;;;;5.05;2.97;;;24.80;1.00;;;;;;5036366;28;20389;-61
2023/07/22 02:43:03;;;;;;;6.35;4.38;;;24.80;1.00;;;;;;5036108;28;20044;-61
2023/07/22 02:45:29;;;;;;;5.40;4.90;;;24.80;1.00;;;;;;5034978;28;20108;-61
2023/07/22 02:47:55;;;;;;;6.00;5.00;;;24.80;1.00;;;;;;5036364;28;20395;-61
2023/07/22 02:50:21;;;;;;;6.15;5.43;;;24.70;1.00;;;;;;5035899;28;20025;-61
2023/07/22 02:52:47;;;;;;;6.72;5.35;;;24.60;1.00;;;;;;5036002;28;20065;-61
2023/07/22 02:55:18;;;;;;;7.30;4.78;;;24.60;1.00;;;;;;5034819;28;20068;-61
2023/07/22 02:57:46;;;;;;;6.30;4.63;;;24.60;1.00;;;;;;5036475;28;20104;-62
2023/07/22 03:00:12;;;;;;;6.05;4.90;;;24.60;1.00;;;;;;5035336;28;20047;-61
2023/07/22 03:02:39;;;;;;;7.72;4.13;;;24.60;1.00;;;;;;5022971;28;20034;-62
2023/07/22 03:05:09;;;;;;;6.70;4.70;;;24.60;1.00;;;;;;5036210;28;20072;-62
2023/07/22 03:07:39;;;;;;;7.03;5.57;;;24.40;1.00;;;;;;5030501;28;20052;-62
2023/07/22 03:10:07;;;;;;;5.57;4.85;;;24.50;1.00;;;;;;5028427;28;20052;-62
2023/07/22 03:12:34;;;;;;;10.85;5.78;;;24.40;1.00;;;;;;5035989;28;20045;-61
2023/07/22 03:15:00;;;;;;;8.27;6.75;;;24.30;1.00;;;;;;5035875;28;20038;-62
2023/07/22 03:17:26;;;;;;;9.38;7.60;;;24.40;1.00;;;;;;5035948;28;20105;-62
2023/07/22 03:19:52;;;;;;;9.70;7.80;;;24.30;1.00;;;;;;5036005;28;20049;-62
2023/07/22 03:22:18;;;;;;;11.07;8.32;;;24.30;1.00;;;;;;5035581;28;20514;-62
2023/07/22 03:24:45;;;;;;;12.27;9.38;;;24.30;1.00;;;;;;5035735;28;20112;-62
2023/07/22 03:27:11;;;;;;;12.50;9.30;;;24.40;1.00;;;;;;5035672;28;20060;-62
2023/07/22 03:29:37;;;;;;;12.20;9.15;;;24.40;1.00;;;;;;5035684;28;20071;-62
2023/07/22 03:32:04;;;;;;;16.30;11.65;;;24.30;1.00;;;;;;5035593;28;20036;-61
2023/07/22 03:34:30;;;;;;;13.75;9.63;;;24.20;1.00;;;;;;5035325;28;20045;-62
2023/07/22 03:36:56;;;;;;;12.13;9.93;;;24.20;1.00;;;;;;5035429;28;20025;-62
2023/07/22 03:39:22;;;;;;;14.48;11.32;;;24.30;1.00;;;;;;5035344;28;20103;-62
2023/07/22 03:41:48;;;;;;;12.23;10.63;;;24.10;1.00;;;;;;5035297;28;20033;-62
2023/07/22 03:44:14;;;;;;;14.15;10.52;;;24.20;1.00;;;;;;5035279;28;20163;-62
2023/07/22 03:46:40;;;;;;;12.73;10.57;;;24.20;1.00;;;;;;5035403;28;20155;-62
2023/07/22 03:49:05;;;;;;;14.18;11.20;;;24.30;1.00;;;;;;5033635;28;20032;-62
2023/07/22 03:51:31;;;;;;;14.73;11.32;;;24.30;1.00;;;;;;5035151;28;20033;-61
2023/07/22 03:53:58;;;;;;;12.40;9.77;;;24.30;1.00;;;;;;5034885;28;20049;-62
2023/07/22 03:56:23;;;;;;;13.40;9.60;;;24.40;1.00;;;;;;5035111;28;20024;-61
2023/07/22 03:58:50;;;;;;;12.18;10.18;;;24.40;1.00;;;;;;5034797;28;20116;-61
2023/07/22 04:01:16;;;;;;;11.10;8.70;;;24.40;1.00;;;;;;5033764;28;20048;-62
2023/07/22 04:03:42;;;;;;;12.85;9.15;;;24.40;1.00;;;;;;5034943;28;20029;-62
2023/07/22 04:06:07;;;;;;;9.90;7.80;;;24.50;1.00;;;;;;5034653;28;20029;-62
2023/07/22 04:08:33;;;;;;;8.32;7.15;;;24.50;1.00;;;;;;5034890;28;20447;-62
2023/07/22 04:10:59;;;;;;;6.97;5.68;;;24.50;1.00;;;;;;5034922;28;20513;-62
2023/07/22 04:13:26;;;;;;;7.60;6.05;;;24.50;1.00;;;;;;5034708;28;20053;-62
2023/07/22 04:15:52;;;;;;;6.93;5.90;;;24.50;1.00;;;;;;5034632;28;20016;-62
2023/07/22 04:18:19;;;;;;;9.32;6.00;;;24.40;1.00;;;;;;5034888;28;20026;-62
2023/07/22 04:20:45;;;;;;;6.72;6.03;;;24.40;1.00;;;;;;5034590;28;20067;-61
2023/07/22 04:23:11;;;;;;;7.03;5.65;;;24.50;1.00;;;;;;5034876;28;20034;-62
2023/07/22 04:25:41;;;;;;;11.27;5.72;;;24.40;1.00;;;;;;5033118;28;20130;-62
2023/07/22 04:28:08;;;;;;;6.68;6.05;;;24.40;1.00;;;;;;5034517;28;20029;-62
2023/07/22 04:30:34;;;;;;;6.47;5.70;;;24.30;1.00;;;;;;5034412;28;20091;-62
2023/07/22 04:33:00;;;;;;;7.80;6.82;;;24.40;1.00;;;;;;5034117;28;20112;-62
2023/07/22 04:35:26;;;;;;;9.18;7.32;;;24.30;1.00;;;;;;5034300;28;20076;-62
2023/07/22 04:37:51;;;;;;;8.32;7.40;;;24.30;1.00;;;;;;5034188;28;20049;-61
2023/07/22 04:40:19;;;;;;;9.10;7.72;;;24.30;1.00;;;;;;5034186;28;20427;-62
2023/07/22 04:42:46;;;;;;;9.68;8.18;;;24.30;1.00;;;;;;5032837;28;20124;-62
2023/07/22 04:45:11;;;;;;;10.50;9.40;;;24.20;1.00;;;;;;5034018;28;20028;-62
2023/07/22 04:47:41;;;;;;;10.80;9.20;;;24.20;1.00;;;;;;5034080;28;20021;-62
2023/07/22 04:50:11;;;;;;;11.52;9.07;;;24.30;1.00;;;;;;5031750;28;20025;-62
2023/07/22 04:52:37;;;;;;;11.65;9.50;;;24.20;1.00;;;;;;5030658;28;20096;-62
2023/07/22 04:55:08;;;;;;;10.75;9.18;;;24.20;1.00;;;;;;5032474;28;20491;-62
2023/07/22 04:57:45;;;;;;;12.02;9.32;;;24.10;1.00;;;;;;5033688;28;20136;-62
2023/07/22 05:00:16;;;;;;;10.80;9.50;;;24.10;1.00;;;;;;5033288;28;20053;-62
2023/07/22 05:02:43;;;;;;;12.35;10.10;;;24.10;1.00;;;;;;5033789;28;20407;-62
2023/07/22 05:05:09;;;;;;;11.75;8.85;;;24.20;1.00;;;;;;5033753;28;20044;-62
2023/07/22 05:07:35;;;;;;;10.90;9.00;;;24.10;1.00;;;;;;5033807;28;20123;-62
2023/07/22 05:10:01;;;;;;;10.85;8.60;;;24.10;1.00;;;;;;5033636;28;20025;-62
2023/07/22 05:12:27;;;;;;;12.75;9.68;;;24.20;1.00;;;;;;5033551;28;20024;-62
2023/07/22 05:14:52;;;;;;;11.07;9.82;;;24.20;1.00;;;;;;5032311;28;20037;-62
2023/07/22 05:17:18;;;;;;;12.88;10.30;;;24.20;1.00;;;;;;5032381;28;20028;-62
2023/07/22 05:19:44;;;;;;;13.25;11.73;;;24.20;1.00;;;;;;5033779;28;20025;-62
2023/07/22 05:22:10;;;;;;;14.70;12.52;;;24.10;1.00;;;;;;5033627;28;20028;-61
2023/07/22 05:24:35;;;;;;;13.50;11.50;;;24.20;1.00;;;;;;5019600;28;20025;-62
2023/07/22 05:27:01;;;;;;;15.93;10.65;;;24.20;1.00;;;;;;5033419;28;20537;-61
2023/07/22 05:29:27;;;;;;;14.98;13.20;;;24.10;1.00;;;;;;5033293;28;20025;-62
2023/07/22 05:31:52;;;;;;;18.10;12.95;;;24.20;1.00;;;;;;5033362;28;20045;-62
2023/07/22 05:34:18;;;;;;;13.98;12.13;;;24.20;1.00;;;;;;5033242;28;20041;-62
2023/07/22 05:36:44;;;;;;;17.92;13.00;;;24.30;1.00;;;;;;5033335;28;20479;-61
2023/07/22 05:39:09;;;;;;;15.85;12.77;;;24.20;1.00;;;;;;5033151;28;20033;-62
2023/07/22 05:41:35;;;;;;;17.20;13.27;;;24.20;1.00;;;;;;5033297;28;20025;-62
2023/07/22 05:44:01;;;;;;;15.60;12.45;;;24.20;1.00;;;;;;5031947;28;20075;-62
2023/07/22 05:46:27;;;;;;;14.05;12.07;;;24.30;1.00;;;;;;5033042;28;20021;-62
2023/07/22 05:48:52;;;;;;;14.05;11.93;;;24.30;1.00;;;;;;5033163;28;20033;-61
2023/07/22 05:51:18;;;;;;;17.48;12.40;;;24.30;1.00;;;;;;5032981;28;20022;-62
2023/07/22 05:53:44;;;;;;;17.40;13.57;;;24.40;1.00;;;;;;5033110;28;20033;-62
2023/07/22 05:56:10;;;;;;;15.52;11.63;;;24.40;1.00;;;;;;5033111;28;20018;-62
2023/07/22 05:58:36;;;;;;;15.30;10.90;;;24.40;1.00;;;;;;5032674;28;20068;-62
2023/07/22 06:01:02;;;;;;;11.10;9.70;;;24.40;1.00;;;;;;5033017;28;20026;-62
2023/07/22 06:03:28;;;;;;;15.13;9.65;;;24.40;1.00;;;;;;5032808;28;20029;-62
2023/07/22 06:05:54;;;;;;;13.90;10.23;;;24.50;1.00;;;;;;5032992;28;20096;-62
2023/07/22 06:08:20;;;;;;;11.88;9.10;;;24.50;1.00;;;;;;5033143;28;20116;-62
2023/07/22 06:10:45;;;;;;;10.40;8.73;;;24.50;1.00;;;;;;5026436;28;20080;-62
2023/07/22 06:13:11;;;;;;;9.70;8.70;;;24.50;1.00;;;;;;5028582;28;20052;-62
2023/07/22 06:15:37;;;;;;;9.38;7.28;;;24.60;1.00;;;;;;5037121;28;20017;-62
2023/07/22 06:18:02;;;;;;;11.00;8.98;;;24.70;1.00;;;;;;5036911;28;20041;-62
2023/07/22 06:20:28;;;;;;;13.50;8.70;;;24.80;1.00;;;;;;5036869;28;20024;-61
2023/07/22 06:22:54;;;;;;;11.20;8.73;;;25.00;1.00;;;;;;5035351;28;20026;-62
2023/07/22 06:25:20;;;;;;;10.68;8.93;;;25.10;1.00;;;;;;5034493;28;20022;-62
2023/07/22 06:27:46;;;;;;;11.25;8.90;;;25.20;1.00;;;;;;5035408;28;20475;-62
2023/07/22 06:30:12;;;;;;;10.82;9.40;;;25.20;1.00;;;;;;5036699;28;20383;-61
2023/07/22 06:32:39;;;;;;;14.23;9.05;;;25.20;1.00;;;;;;5031898;28;20022;-62
2023/07/22 06:35:05;;;;;;;11.85;9.77;;;25.10;1.00;;;;;;5027658;28;20525;-62
2023/07/22 06:37:31;;;;;;;10.13;9.13;;;25.20;1.00;;;;;;5035171;28;20403;-61
2023/07/22 06:39:57;;;;;;;10.18;9.18;;;25.20;1.00;;;;;;5036446;28;20021;-61
2023/07/22 06:42:22;;;;;;;15.48;9.95;;;25.20;1.00;;;;;;5036399;28;20113;-62
2023/07/22 06:44:48;;;;;;;10.70;9.57;;;25.00;1.00;;;;;;5036701;28;20101;-61
2023/07/22 06:47:14;;;;;;;11.45;9.32;;;25.10;1.00;;;;;;5036386;28;20378;-62
2023/07/22 06:49:43;;;;;;;10.85;9.13;;;25.00;1.00;;;;;;5036104;28;20079;-62
2023/07/22 06:52:08;;;;;;;10.25;8.95;;;25.10;1.00;;;;;;5036500;28;20029;-59
2023/07/22 06:54:35;;;;;;;11.05;8.80;;;25.00;1.00;;;;;;5036106;28;20056;-60
2023/07/22 06:57:01;;;;;;;10.82;9.02;;;25.10;1.00;;;;;;5036361;28;20079;-60
2023/07/22 06:59:27;;;;;;;10.32;8.63;;;25.10;1.00;;;;;;5035928;28;20056;-60
2023/07/22 07:01:53;;;;;;;9.35;8.32;;;25.20;1.00;;;;;;5036057;28;20029;-61
2023/07/22 07:04:19;;;;;;;10.55;7.95;;;25.20;1.00;;;;;;5034878;28;20021;-61
2023/07/22 07:06:45;;;;;;;12.35;8.63;;;25.20;1.00;;;;;;5035921;28;20033;-61
2023/07/22 07:09:11;;;;;;;9.65;8.20;;;25.30;1.00;;;;;;5034636;28;20021;-61
2023/07/22 07:11:37;;;;;;;8.82;7.22;;;25.30;1.00;;;;;;5035950;28;20026;-61
2023/07/22 07:14:03;;;;;;;8.95;8.05;;;25.40;1.00;;;;;;5035762;28;20491;-60
2023/07/22 07:16:31;;;;;;;12.82;8.00;;;25.50;1.00;;;;;;5035821;28;20029;-61
2023/07/22 07:18:58;;;;;;;9.00;8.02;;;25.60;1.00;;;;;;5035613;28;20041;-61
2023/07/22 07:21:24;;;;;;;8.98;7.22;;;25.60;1.00;;;;;;5036031;28;20422;-60
2023/07/22 07:23:51;;;;;;;13.50;8.10;;;25.70;1.00;;;;;;5033740;28;20029;-60
2023/07/22 07:26:18;;;;;;;11.43;8.82;;;25.60;1.00;;;;;;5035528;28;20487;-61
2023/07/22 07:28:44;;;;;;;11.27;8.80;;;25.80;1.00;;;;;;5035459;28;20044;-65
2023/07/22 07:31:10;;;;;;;12.38;9.07;;;25.80;1.00;;;;;;5035844;28;20117;-66
2023/07/22 07:33:36;;;;;;;15.20;10.25;;;25.90;1.00;;;;;;5035554;28;20462;-61
2023/07/22 07:36:03;;;;;;;12.85;10.05;;;25.80;1.00;;;;;;5034082;28;20389;-62
2023/07/22 07:38:29;;;;;;;14.00;9.90;;;25.90;1.00;;;;;;5035367;28;20025;-64
2023/07/22 07:40:59;;;;;;;11.43;8.07;;;26.00;1.00;;;;;;5033587;28;20147;-66
2023/07/22 07:43:26;;;;;;;33.50;29.35;;;26.10;1.00;;;;;;5026057;28;20096;-64
2023/07/22 07:46:12;;;;;;;16.48;14.15;;;26.20;1.00;;;;;;5030686;28;20029;-73
2023/07/22 07:48:38;;;;;;;13.27;11.20;;;26.20;1.00;;;;;;5035120;28;20455;-66
2023/07/22 07:51:04;;;;;;;13.93;9.23;;;26.10;1.00;;;;;;5035110;28;20108;-66
2023/07/22 07:53:29;;;;;;;17.73;15.35;;;26.10;1.00;;;;;;5035049;28;20030;-65
2023/07/22 07:55:55;;;;;;;18.08;15.80;;;25.90;1.00;;;;;;5033571;28;20414;-68
2023/07/22 07:58:21;;;;;;;18.30;14.80;;;25.90;1.00;;;;;;5034932;28;20397;-64
2023/07/22 08:00:46;;;;;;;15.73;14.05;;;25.80;1.00;;;;;;5034981;28;20029;-68
2023/07/22 08:03:12;;;;;;;13.98;9.57;;;25.80;1.00;;;;;;5035042;28;20026;-53
2023/07/22 08:05:39;;;;;;;9.95;8.13;;;25.70;1.00;;;;;;5034820;28;20463;-60
2023/07/22 08:08:05;;;;;;;11.90;7.88;;;25.70;1.00;;;;;;5034958;28;20390;-66
2023/07/22 08:10:30;;;;;;;13.98;7.13;;;25.60;1.00;;;;;;5034651;28;20101;-63
2023/07/22 08:12:56;;;;;;;8.82;7.00;;;25.50;1.00;;;;;;5034568;28;20036;-64
2023/07/22 08:15:22;;;;;;;10.63;7.25;;;25.40;1.00;;;;;;5030608;28;20052;-64
2023/07/22 08:17:47;;;;;;;15.35;9.30;;;25.30;1.00;;;;;;5032963;28;20044;-64
2023/07/22 08:20:13;;;;;;;16.05;10.65;;;25.40;1.00;;;;;;5033527;28;21712;-64
2023/07/22 08:22:39;;;;;;;12.40;9.40;;;25.20;1.00;;;;;;5034491;28;20112;-71
2023/07/22 08:25:05;;;;;;;12.32;8.48;;;25.30;1.00;;;;;;5031556;28;20108;-63
2023/07/22 08:27:30;;;;;;;10.20;8.30;;;25.20;1.00;;;;;;5034490;28;20100;-63
2023/07/22 08:29:56;;;;;;;15.15;9.15;;;24.90;1.00;;;;;;5034750;28;20061;-63
2023/07/22 08:32:22;;;;;;;14.77;8.38;;;24.70;1.00;;;;;;5034622;28;20029;-61
2023/07/22 08:34:47;;;;;;;11.15;7.90;;;24.70;1.00;;;;;;5033981;28;20060;-64
2023/07/22 08:37:13;;;;;;;13.70;9.20;;;24.60;1.00;;;;;;5033700;28;20021;-63
2023/07/22 08:39:39;;;;;;;14.18;9.63;;;24.70;1.00;;;;;;5034108;28;20399;-60
2023/07/22 08:42:06;;;;;;;23.98;12.43;;;24.50;1.00;;;;;;5034140;28;20129;-63
2023/07/22 08:44:36;;;;;;;26.02;15.55;;;24.00;1.00;;;;;;5033824;28;20458;-64
2023/07/22 08:47:03;;;;;;;12.73;10.02;;;23.90;1.00;;;;;;5033908;28;20048;-66
2023/07/22 08:49:30;;;;;;;17.52;11.43;;;23.70;1.00;;;;;;5034536;28;20025;-66
2023/07/22 08:51:57;;;;;;;13.98;11.30;;;23.00;1.00;;;;;;5033967;28;20029;-73
2023/07/22 08:54:23;;;;;;;11.23;9.77;;;23.10;1.00;;;;;;5033920;28;20041;-75
2023/07/22 08:56:50;;;;;;;14.77;9.23;;;23.20;1.00;;;;;;5033984;28;20025;-67
2023/07/22 08:59:18;;;;;;;11.07;9.63;;;23.50;1.00;;;;;;5033155;28;20069;-72
2023/07/22 09:01:44;;;;;;;11.48;9.18;;;23.40;1.00;;;;;;5028437;28;20453;-67
2023/07/22 09:04:10;;;;;;;9.93;8.20;;;23.80;1.00;;;;;;5029276;28;20057;-68
2023/07/22 09:06:36;;;;;;;10.27;7.97;;;24.00;1.00;;;;;;5032029;28;20501;-77
2023/07/22 09:09:07;;;;;;;12.98;8.55;;;24.30;1.00;;;;;;5031232;28;20076;-63
2023/07/22 09:11:34;;;;;;;12.30;8.32;;;24.50;1.00;;;;;;5030103;28;20652;-69
2023/07/22 09:14:02;;;;;;;9.93;7.53;;;24.60;1.00;;;;;;5031616;28;20056;-57
2023/07/22 09:16:29;;;;;;;9.30;7.63;;;24.70;1.00;;;;;;5024772;28;20026;-61
2023/07/22 09:18:57;;;;;;;9.98;6.68;;;24.70;1.00;;;;;;5033526;28;20035;-63
2023/07/22 09:21:38;;;;;;;9.73;6.07;;;25.00;1.00;;;;;;5024183;28;20092;-63
2023/07/22 09:24:23;;;;;;;9.45;6.55;;;25.20;1.00;;;;;;5033265;28;20032;-63
2023/07/22 09:26:49;;;;;;;10.32;7.90;;;25.40;1.00;;;;;;5029865;28;20114;-63
2023/07/22 09:29:15;;;;;;;12.88;10.20;;;25.50;1.00;;;;;;5028014;28;20033;-64
2023/07/22 09:31:52;;;;;;;10.13;8.80;;;25.50;1.00;;;;;;5031815;28;20029;-64
2023/07/22 09:34:18;;;;;;;9.32;7.18;;;25.70;1.00;;;;;;5032580;28;20032;-64
2023/07/22 09:36:54;;;;;;;9.32;7.65;;;25.80;1.00;;;;;;5032348;28;20479;-63
2023/07/22 09:39:21;;;;;;;8.05;7.07;;;25.90;1.00;;;;;;5030402;28;20037;-63
2023/07/22 09:41:47;;;;;;;8.50;6.97;;;26.00;1.00;;;;;;5027831;28;20026;-63
2023/07/22 09:44:13;;;;;;;8.18;7.30;;;26.00;1.00;;;;;;5021543;28;20075;-63
2023/07/22 09:46:38;;;;;;;7.63;6.20;;;26.10;1.00;;;;;;5032801;28;20065;-63
2023/07/22 09:49:07;;;;;;;9.93;7.65;;;26.00;1.00;;;;;;5031432;28;20029;-61
2023/07/22 09:51:43;;;;;;;8.20;6.22;;;26.00;1.00;;;;;;5028813;28;20032;-63
2023/07/22 09:54:09;;;;;;;7.78;5.70;;;26.10;1.00;;;;;;5028334;28;20072;-63
2023/07/22 09:56:46;;;;;;;7.40;6.63;;;26.20;1.00;;;;;;5032823;28;20479;-63
2023/07/22 09:59:13;;;;;;;9.18;7.07;;;26.10;1.00;;;;;;5023745;28;20049;-63
2023/07/22 10:01:39;;;;;;;10.10;7.63;;;26.10;1.00;;;;;;5028608;28;20017;-68
2023/07/22 10:04:06;;;;;;;7.68;6.82;;;26.20;1.00;;;;;;5021810;28;20076;-65
2023/07/22 10:06:33;;;;;;;8.15;6.55;;;26.10;1.00;;;;;;5031463;28;20152;-61
2023/07/22 10:09:07;;;;;;;8.93;6.65;;;26.20;1.00;;;;;;5019449;28;20022;-67
2023/07/22 10:11:34;;;;;;;7.88;6.07;;;26.30;1.00;;;;;;5027390;28;20030;-66
2023/07/22 10:14:02;;;;;;;8.10;6.45;;;26.40;1.00;;;;;;5017566;28;20041;-68
2023/07/22 10:16:28;;;;;;;9.75;6.05;;;26.50;1.00;;;;;;5025734;28;20028;-64
2023/07/22 10:18:55;;;;;;;7.50;6.13;;;26.50;1.00;;;;;;5029401;28;20376;-67
2023/07/22 10:21:21;;;;;;;7.50;5.45;;;26.60;1.00;;;;;;5014974;28;20018;-69
2023/07/22 10:23:48;;;;;;;5.22;4.68;;;26.60;1.00;;;;;;5029356;28;20021;-66
2023/07/22 10:26:17;;;;;;;10.85;7.38;;;26.70;1.00;;;;;;5031517;28;20033;-64
2023/07/22 10:28:45;;;;;;;17.83;12.55;;;26.80;1.00;;;;;;5032456;28;20045;-53
2023/07/22 10:31:12;;;;;;;11.65;6.20;;;26.90;1.00;;;;;;5026809;28;20022;-61
2023/07/22 10:33:38;;;;;;;16.33;13.98;;;27.00;1.00;;;;;;5024726;28;20038;-60
2023/07/22 10:36:07;;;;;;;11.73;8.10;;;27.00;1.00;;;;;;5030944;28;20530;-60
2023/07/22 10:38:33;;;;;;;9.10;5.63;;;27.10;1.00;;;;;;5025682;28;20097;-60
2023/07/22 10:40:59;;;;;;;9.15;7.53;;;27.20;1.00;;;;;;5020035;28;20096;-58
2023/07/22 10:43:34;;;;;;;10.27;7.93;;;27.20;1.00;;;;;;5030910;28;20459;-59
2023/07/22 10:46:07;;;;;;;6.35;5.28;;;27.10;1.00;;;;;;5032584;28;20493;-58
2023/07/22 10:48:37;;;;;;;6.07;5.47;;;27.30;1.00;;;;;;5030919;28;20328;-58
2023/07/22 10:51:11;;;;;;;5.85;5.22;;;27.30;1.00;;;;;;5031809;28;20030;-57
2023/07/22 10:53:47;;;;;;;6.68;5.97;;;27.50;1.00;;;;;;5029995;28;20033;-57
2023/07/22 10:56:19;;;;;;;6.50;4.80;;;27.40;1.00;;;;;;5022526;28;20026;-58
2023/07/22 10:58:45;;;;;;;6.15;5.55;;;27.60;1.00;;;;;;5026782;28;20560;-58
2023/07/22 11:01:29;;;;;;;8.15;6.30;;;27.60;1.00;;;;;;5033644;28;20029;-59
2023/07/22 11:04:15;;;;;;;7.72;6.95;;;27.80;1.00;;;;;;5032273;28;20052;-58
2023/07/22 11:06:45;;;;;;;15.57;10.90;;;27.90;1.00;;;;;;5035112;28;20025;-59
2023/07/22 11:09:33;;;;;;;9.45;6.97;;;27.90;1.00;;;;;;5026412;28;20052;-59
2023/07/22 11:12:18;;;;;;;6.40;5.78;;;28.10;99.90;;;;;;5034801;28;20426;-58
2023/07/22 11:14:52;;;;;;;6.32;5.10;;;28.30;99.90;;;;;;5029777;28;20033;-59
2023/07/22 11:17:28;;;;;;;4.32;3.95;;;28.50;99.90;;;;;;5026753;28;20028;-59
2023/07/22 11:19:55;;;;;;;5.18;4.43;;;28.80;99.90;;;;;;5032403;28;20029;-58
2023/07/22 11:22:21;;;;;;;14.13;9.63;;;29.00;99.90;;;;;;5034945;28;20033;-59
2023/07/22 11:24:47;;;;;;;5.22;3.78;;;29.00;99.90;;;;;;5062517;28;20384;-60
2023/07/22 11:27:13;;;;;;;4.38;3.95;;;29.90;99.90;;;;;;5035453;28;20390;-60
2023/07/22 11:29:39;;;;;;;6.65;6.00;;;30.10;99.90;;;;;;5031786;28;20024;-59
2023/07/22 11:32:05;;;;;;;12.05;8.02;;;30.30;99.90;;;;;;5028602;28;20041;-60
2023/07/22 11:34:31;;;;;;;8.77;6.47;;;29.80;99.90;;;;;;5025347;28;20057;-60
2023/07/22 11:36:58;;;;;;;6.28;5.13;;;30.60;99.90;;;;;;5032862;28;20424;-59
2023/07/22 11:39:26;;;;;;;7.63;6.50;;;33.40;99.90;;;;;;5028084;28;20111;-60
2023/07/22 11:41:52;;;;;;;6.72;6.05;;;35.60;99.90;;;;;;5035327;28;20499;-60
2023/07/22 11:44:22;;;;;;;9.60;7.78;;;36.40;99.90;;;;;;5030426;28;20070;-60
2023/07/22 11:50:33;;;;;;;5.05;4.32;;;38.70;99.90;;;;;;5032555;28;20463;-60
2023/07/22 11:52:59;;;;;;;5.60;4.25;;;40.20;99.90;;;;;;5032944;28;20506;-60
2023/07/22 11:55:25;;;;;;;5.15;4.40;;;40.50;99.90;;;;;;5028887;28;20045;-60
2023/07/22 11:57:54;;;;;;;4.88;4.47;;;40.90;99.90;;;;;;5020405;28;20033;-60
2023/07/22 12:00:21;;;;;;;6.20;4.78;;;40.60;99.90;;;;;;5022049;28;20069;-60
2023/07/22 12:02:47;;;;;;;4.95;4.50;;;38.50;99.90;;;;;;5031196;28;20044;-59
2023/07/22 12:05:21;;;;;;;5.32;4.93;;;37.50;99.90;;;;;;5034814;28;20136;-59
2023/07/22 12:07:47;;;;;;;5.55;5.15;;;36.90;99.90;;;;;;5027670;28;20018;-59
2023/07/22 12:10:13;;;;;;;5.93;5.35;;;36.90;99.90;;;;;;5028528;28;20018;-59
2023/07/22 12:12:47;;;;;;;5.50;4.53;;;37.70;99.90;;;;;;5033178;28;20051;-59
2023/07/22 12:15:20;;;;;;;5.50;5.10;;;38.40;99.90;;;;;;5033823;28;20037;-59
2023/07/22 12:17:54;;;;;;;5.90;5.40;;;38.20;99.90;;;;;;5033541;28;20084;-59
2023/07/22 12:20:29;;;;;;;5.40;4.90;;;37.30;99.90;;;;;;5033811;28;20465;-59
2023/07/22 12:22:56;;;;;;;5.47;4.90;;;36.50;99.90;;;;;;5028273;28;20037;-60
2023/07/22 12:25:22;;;;;;;5.32;4.85;;;35.40;99.90;;;;;;5028997;28;20057;-59
2023/07/22 12:27:48;;;;;;;5.70;5.00;;;35.40;99.90;;;;;;5026973;28;20025;-60
2023/07/22 12:30:13;;;;;;;5.45;4.95;;;36.00;99.90;;;;;;5032005;28;20057;-60
2023/07/22 12:32:39;;;;;;;5.68;5.18;;;36.20;99.90;;;;;;5031115;28;20099;-60
2023/07/22 12:35:06;;;;;;;8.30;7.60;;;37.30;99.90;;;;;;5030700;28;20038;-59
2023/07/22 12:37:31;;;;;;;6.63;6.05;;;36.80;99.90;;;;;;5031824;28;20045;-59
2023/07/22 12:39:57;;;;;;;7.43;6.82;;;36.60;99.90;;;;;;5033402;28;20077;-60
2023/07/22 12:42:23;;;;;;;6.50;5.90;;;36.70;99.90;;;;;;5025212;28;20375;-60
2023/07/22 12:44:48;;;;;;;5.75;5.28;;;36.90;99.90;;;;;;5027339;28;20029;-59
2023/07/22 12:47:14;;;;;;;5.78;5.22;;;37.30;99.90;;;;;;5032591;28;20026;-59
2023/07/22 12:49:40;;;;;;;6.13;5.03;;;37.60;99.90;;;;;;5034150;28;20029;-59
2023/07/22 12:52:08;;;;;;;5.63;5.10;;;37.30;99.90;;;;;;5021041;28;20030;-59
2023/07/22 12:54:38;;;;;;;6.10;5.57;;;36.30;99.90;;;;;;5020077;28;20041;-59